createdAt,value
2023-03-25T00:02:58.982Z,1.85
2023-03-25T00:08:01.149Z,1.92
2023-03-25T00:13:05.505Z,1.80
2023-03-25T00:18:07.250Z,1.90
2023-03-25T00:23:09.209Z,2.20
2023-03-25T00:28:11.946Z,2.00
2023-03-25T00:33:16.498Z,1.85
2023-03-25T00:38:18.245Z,1.83
2023-03-25T00:43:20.194Z,2.10
2023-03-25T00:48:21.940Z,2.10
2023-03-25T00:53:25.434Z,1.90
2023-03-25T00:58:27.661Z,2.10
2023-03-25T01:03:29.773Z,2.30
2023-03-25T01:08:32.037Z,2.33
2023-03-25T01:13:34.693Z,1.95
2023-03-25T01:18:37.897Z,2.45
2023-03-25T01:23:39.653Z,2.05
2023-03-25T01:28:42.714Z,2.05
2023-03-25T01:33:44.476Z,1.83
2023-03-25T01:38:48.027Z,1.98
2023-03-25T01:44:30.278Z,1.90
2023-03-25T01:49:39.173Z,1.70
2023-03-25T01:54:42.881Z,1.67
2023-03-25T01:59:44.952Z,1.80
2023-03-25T02:05:01.913Z,1.80
2023-03-25T02:10:07.695Z,1.50
2023-03-25T02:15:11.029Z,1.50
2023-03-25T02:20:35.969Z,1.63
2023-03-25T02:26:00.661Z,1.60
2023-03-25T02:31:02.304Z,1.52
2023-03-25T02:36:22.592Z,1.73
2023-03-25T02:41:29.501Z,1.60
2023-03-25T02:46:33.674Z,1.45
2023-03-25T02:51:42.577Z,1.30
2023-03-25T02:56:48.418Z,1.27
2023-03-25T03:01:50.558Z,1.20
2023-03-25T03:06:56.586Z,1.30
2023-03-25T03:12:05.884Z,1.63
2023-03-25T03:17:30.179Z,1.40
2023-03-25T03:22:44.663Z,1.33
2023-03-25T03:27:50.088Z,1.40
2023-03-25T03:33:09.974Z,1.38
2023-03-25T03:38:16.267Z,1.05
2023-03-25T03:43:31.084Z,1.25
2023-03-25T03:48:40.291Z,1.13
2023-03-25T03:54:03.964Z,1.10
2023-03-25T03:59:13.105Z,1.10
2023-03-25T04:04:26.706Z,0.90
2023-03-25T04:09:55.037Z,1.20
2023-03-25T04:15:01.393Z,0.93
2023-03-25T04:20:08.890Z,1.30
2023-03-25T04:25:12.259Z,1.45
2023-03-25T04:30:17.644Z,1.30
2023-03-25T04:35:20.134Z,1.05
2023-03-25T04:40:21.923Z,0.95
2023-03-25T04:45:25.334Z,0.90
2023-03-25T04:50:29.519Z,1.13
2023-03-25T04:55:31.513Z,1.00
2023-03-25T05:00:33.222Z,1.02
2023-03-25T05:05:35.438Z,1.10
2023-03-25T05:10:38.770Z,1.20
2023-03-25T05:15:41.046Z,0.90
2023-03-25T05:20:44.735Z,0.80
2023-03-25T05:25:49.073Z,1.08
2023-03-25T05:30:51.808Z,1.10
2023-03-25T05:35:53.934Z,1.10
2023-03-25T05:40:56.662Z,2.13
2023-03-25T05:45:58.441Z,1.70
2023-03-25T05:51:04.294Z,1.30
2023-03-25T05:56:06.999Z,1.23
2023-03-25T06:01:21.649Z,1.38
2023-03-25T06:06:34.198Z,1.10
2023-03-25T06:11:38.584Z,1.42
2023-03-25T06:16:40.700Z,4.15
2023-03-25T06:21:43.511Z,1.50
2023-03-25T06:26:45.283Z,1.40
2023-03-25T06:31:47.013Z,1.60
2023-03-25T06:36:50.110Z,1.58
2023-03-25T06:41:51.981Z,1.92
2023-03-25T06:47:02.306Z,1.80
2023-03-25T06:52:07.173Z,1.30
2023-03-25T06:57:08.928Z,1.50
2023-03-25T07:02:14.546Z,1.30
2023-03-25T07:07:16.397Z,1.52
2023-03-25T07:12:18.222Z,1.50
2023-03-25T07:17:20.779Z,1.05
2023-03-25T07:22:22.521Z,1.40
2023-03-25T07:27:25.643Z,1.50
2023-03-25T07:32:36.282Z,1.20
2023-03-25T07:37:38.016Z,1.00
2023-03-25T07:42:39.936Z,0.90
2023-03-25T07:48:14.521Z,1.00
2023-03-25T07:53:16.749Z,1.00
2023-03-25T07:58:19.714Z,1.20
2023-03-25T08:03:21.948Z,1.10
2023-03-25T08:08:23.925Z,1.30
2023-03-25T08:13:26.381Z,1.33
2023-03-25T08:18:28.214Z,1.00
2023-03-25T08:23:29.894Z,1.00
2023-03-25T08:28:31.972Z,1.00
2023-03-25T08:33:40.839Z,0.97
2023-03-25T08:38:42.547Z,1.00
2023-03-25T08:43:45.181Z,1.00
2023-03-25T08:48:50.091Z,0.75
2023-03-25T08:53:52.257Z,1.10
2023-03-25T08:58:53.966Z,1.00
2023-03-25T09:03:57.691Z,1.20
2023-03-25T09:09:00.333Z,1.02
2023-03-25T09:14:05.105Z,1.15
2023-03-25T09:19:06.971Z,0.80
2023-03-25T09:24:09.760Z,0.80
2023-03-25T09:34:14.624Z,1.00
2023-03-25T09:39:17.957Z,0.80
2023-03-25T09:44:28.092Z,0.70
2023-03-25T09:49:39.538Z,0.70
2023-03-25T09:54:49.543Z,0.60
2023-03-25T09:59:53.179Z,0.90
2023-03-25T10:05:31.409Z,0.88
2023-03-25T10:10:56.812Z,0.60
2023-03-25T10:16:11.388Z,0.70
2023-03-25T10:21:25.278Z,0.75
2023-03-25T10:26:49.067Z,0.75
2023-03-25T10:31:59.297Z,0.90
2023-03-25T10:37:05.072Z,0.80
2023-03-25T10:42:31.602Z,0.95
2023-03-25T10:47:38.250Z,0.90
2023-03-25T10:52:40.030Z,0.90
2023-03-25T10:57:42.419Z,0.90
2023-03-25T11:02:46.044Z,0.90
2023-03-25T11:07:55.111Z,1.00
2023-03-25T11:13:01.920Z,1.00
2023-03-25T11:18:12.291Z,0.93
2023-03-25T11:23:42.597Z,0.70
2023-03-25T11:28:46.919Z,0.80
2023-03-25T11:34:19.279Z,0.68
2023-03-25T11:39:24.012Z,1.00
2023-03-25T11:44:33.382Z,0.88
2023-03-25T11:49:38.496Z,0.90
2023-03-25T11:54:42.695Z,1.60
2023-03-25T11:59:50.119Z,0.75
2023-03-25T12:05:03.744Z,0.60
2023-03-25T12:10:07.171Z,0.60
2023-03-25T12:15:24.435Z,0.80
2023-03-25T12:20:32.184Z,0.90
2023-03-25T12:25:44.402Z,0.90
2023-03-25T12:31:26.484Z,1.20
2023-03-25T12:36:48.141Z,0.90
2023-03-25T12:42:13.092Z,1.13
2023-03-25T12:47:17.929Z,1.08
2023-03-25T12:52:53.255Z,1.10
2023-03-25T12:58:10.129Z,1.10
2023-03-25T13:03:25.607Z,1.20
2023-03-25T13:08:38.973Z,0.80
2023-03-25T13:13:46.254Z,0.90
2023-03-25T13:19:01.741Z,1.40
2023-03-25T13:24:14.673Z,2.40
2023-03-25T13:29:39.951Z,1.45
2023-03-25T13:34:53.991Z,1.05
2023-03-25T13:40:13.328Z,0.80
2023-03-25T13:45:21.182Z,0.90
2023-03-25T13:50:29.166Z,0.80
2023-03-25T13:55:40.983Z,1.10
2023-03-25T14:01:12.760Z,0.82
2023-03-25T14:06:32.953Z,0.82
2023-03-25T14:11:57.189Z,0.80
2023-03-25T14:17:01.240Z,0.98
2023-03-25T14:22:12.966Z,0.80
2023-03-25T14:27:18.280Z,0.70
2023-03-25T14:32:20.245Z,0.95
2023-03-25T14:37:27.519Z,0.80
2023-03-25T14:42:41.419Z,0.77
2023-03-25T14:47:53.778Z,0.63
2023-03-25T14:53:00.556Z,0.98
2023-03-25T14:58:17.978Z,0.95
2023-03-25T15:03:22.656Z,0.70
2023-03-25T15:08:55.336Z,0.75
2023-03-25T15:14:03.272Z,0.88
2023-03-25T15:19:11.931Z,0.95
2023-03-25T15:24:21.252Z,0.80
2023-03-25T15:29:37.121Z,0.80
2023-03-25T15:35:05.064Z,0.90
2023-03-25T15:40:32.629Z,0.90
2023-03-25T15:46:02.045Z,0.80
2023-03-25T15:51:25.371Z,0.75
2023-03-25T15:56:41.527Z,0.77
2023-03-25T16:01:48.168Z,0.82
2023-03-25T16:06:53.816Z,0.93
2023-03-25T16:12:02.890Z,1.00
2023-03-25T16:17:07.796Z,0.80
2023-03-25T16:22:18.040Z,0.80
2023-03-25T16:27:26.892Z,0.90
2023-03-25T16:32:34.892Z,0.85
2023-03-25T16:37:39.561Z,0.60
2023-03-25T16:42:41.375Z,1.15
2023-03-25T16:47:45.019Z,0.88
2023-03-25T16:52:48.778Z,1.00
2023-03-25T16:57:50.891Z,1.10
2023-03-25T17:02:54.020Z,1.00
2023-03-25T17:08:04.893Z,0.90
2023-03-25T17:13:11.061Z,0.90
2023-03-25T17:18:16.578Z,0.90
2023-03-25T17:23:27.331Z,0.80
2023-03-25T17:28:38.578Z,1.30
2023-03-25T17:33:58.088Z,1.95
2023-03-25T17:39:03.811Z,1.02
2023-03-25T17:44:07.064Z,1.10
2023-03-25T17:49:16.766Z,1.10
2023-03-25T17:54:18.692Z,1.20
2023-03-25T17:59:23.210Z,1.40
2023-03-25T18:04:25.636Z,1.33
2023-03-25T18:09:27.927Z,1.60
2023-03-25T18:14:29.901Z,1.67
2023-03-25T18:19:32.133Z,1.60
2023-03-25T18:24:34.201Z,1.70
2023-03-25T18:29:37.298Z,1.75
2023-03-25T18:34:39.078Z,1.40
2023-03-25T18:39:40.911Z,1.30
2023-03-25T18:44:43.855Z,1.52
2023-03-25T18:54:47.467Z,1.40
2023-03-25T18:59:49.305Z,1.30
2023-03-25T19:10:01.236Z,1.17
2023-03-25T19:15:02.913Z,1.58
2023-03-25T19:20:05.530Z,1.15
2023-03-25T19:25:07.669Z,1.80
2023-03-25T19:30:13.485Z,1.80
2023-03-25T19:35:16.997Z,1.60
2023-03-25T19:40:22.094Z,1.60
2023-03-25T19:45:25.692Z,1.20
2023-03-25T19:50:31.132Z,1.10
2023-03-25T19:55:33.110Z,1.40
2023-03-25T20:00:34.746Z,1.40
2023-03-25T20:05:36.705Z,1.50
2023-03-25T20:10:39.344Z,1.70
2023-03-25T20:15:41.100Z,1.73
2023-03-25T20:20:43.407Z,2.08
2023-03-25T20:25:45.366Z,1.90
2023-03-25T20:30:47.146Z,2.20
2023-03-25T20:35:48.863Z,1.58
2023-03-25T20:40:54.318Z,1.80
2023-03-25T20:45:56.479Z,1.67
2023-03-25T20:51:04.074Z,1.85
2023-03-25T20:56:05.940Z,1.63
2023-03-25T21:01:07.908Z,1.55
2023-03-25T21:06:22.737Z,1.40
2023-03-25T21:11:25.701Z,1.58
2023-03-25T21:16:27.565Z,1.63
2023-03-25T21:21:30.258Z,1.05
2023-03-25T21:26:32.394Z,1.38
2023-03-25T21:31:34.148Z,1.20
2023-03-25T21:36:36.487Z,1.20
2023-03-25T21:41:38.458Z,1.10
2023-03-25T21:46:40.836Z,0.83
2023-03-25T21:51:44.170Z,1.15
2023-03-25T21:56:46.934Z,1.20
2023-03-25T22:01:48.676Z,1.30
2023-03-25T22:06:50.480Z,1.48
2023-03-25T22:11:52.218Z,0.90
2023-03-25T22:16:54.308Z,1.13
2023-03-25T22:21:56.335Z,1.35
2023-03-25T22:26:58.673Z,1.17
2023-03-25T22:32:06.724Z,1.40
2023-03-25T22:37:08.545Z,1.00
2023-03-25T22:42:10.261Z,1.30
2023-03-25T22:47:12.613Z,1.00
2023-03-25T22:52:14.547Z,1.48
2023-03-25T22:57:18.076Z,1.20
2023-03-25T23:02:20.036Z,1.10
2023-03-25T23:07:21.887Z,1.40
2023-03-25T23:12:25.976Z,1.40
2023-03-25T23:17:27.755Z,1.30
2023-03-25T23:22:29.447Z,1.45
2023-03-25T23:27:33.874Z,1.70
2023-03-25T23:32:35.945Z,1.58
2023-03-25T23:37:37.814Z,1.40
2023-03-25T23:42:39.813Z,1.27
2023-03-25T23:47:41.627Z,1.50
2023-03-25T23:52:43.395Z,1.55
2023-03-25T23:57:45.394Z,1.30
